createdAt,value
2022-10-19T00:01:19.926Z,15.67
2022-10-19T00:03:51.075Z,15.69
2022-10-19T00:06:25.866Z,15.72
2022-10-19T00:08:56.918Z,15.78
2022-10-19T00:11:24.916Z,15.72
2022-10-19T00:13:54.782Z,15.74
2022-10-19T00:16:26.593Z,15.71
2022-10-19T00:18:57.920Z,15.68
2022-10-19T00:21:25.307Z,15.77
2022-10-19T00:23:52.371Z,15.79
2022-10-19T00:26:19.645Z,15.75
2022-10-19T00:28:46.922Z,15.73
2022-10-19T00:31:17.956Z,15.72
2022-10-19T00:33:48.746Z,15.70
2022-10-19T00:36:24.572Z,15.70
2022-10-19T00:38:52.389Z,15.68
2022-10-19T00:41:22.169Z,15.65
2022-10-19T00:44:16.588Z,15.70
2022-10-19T00:46:50.663Z,15.31
2022-10-19T00:49:25.919Z,15.23
2022-10-19T00:51:57.429Z,15.51
2022-10-19T00:54:25.907Z,15.61
2022-10-19T00:56:56.764Z,15.83
2022-10-19T00:59:25.737Z,16.05
2022-10-19T01:01:54.513Z,16.18
2022-10-19T01:04:22.549Z,16.28
2022-10-19T01:09:22.412Z,16.36
2022-10-19T01:12:20.120Z,16.35
2022-10-19T01:15:15.479Z,16.23
2022-10-19T01:18:00.886Z,16.35
2022-10-19T01:20:43.415Z,16.43
2022-10-19T01:23:48.433Z,16.42
2022-10-19T01:26:56.732Z,16.48
2022-10-19T01:29:54.741Z,16.58
2022-10-19T01:32:45.677Z,16.62
2022-10-19T01:35:45.532Z,16.62
2022-10-19T01:38:41.848Z,16.57
2022-10-19T01:41:23.565Z,16.52
2022-10-19T01:44:23.545Z,16.41
2022-10-19T01:47:07.344Z,16.40
2022-10-19T01:49:42.904Z,16.48
2022-10-19T01:52:14.073Z,16.61
2022-10-19T01:54:48.434Z,16.66
2022-10-19T01:57:22.797Z,16.60
2022-10-19T01:59:50.441Z,16.73
2022-10-19T02:02:19.910Z,16.80
2022-10-19T02:04:49.915Z,16.75
2022-10-19T02:07:20.947Z,16.69
2022-10-19T02:09:48.428Z,16.84
2022-10-19T02:12:16.341Z,16.82
2022-10-19T02:14:47.932Z,16.91
2022-10-19T02:17:21.601Z,16.97
2022-10-19T02:19:48.794Z,16.98
2022-10-19T02:22:15.775Z,16.98
2022-10-19T02:24:42.804Z,17.02
2022-10-19T02:27:10.104Z,17.07
2022-10-19T02:29:38.683Z,16.72
2022-10-19T02:32:06.799Z,16.88
2022-10-19T02:34:35.366Z,16.87
2022-10-19T02:37:02.490Z,16.79
2022-10-19T02:39:29.494Z,16.95
2022-10-19T02:42:16.189Z,16.81
2022-10-19T02:44:59.268Z,16.70
2022-10-19T02:47:35.798Z,16.72
2022-10-19T02:50:08.632Z,16.78
2022-10-19T02:52:40.581Z,16.79
2022-10-19T02:55:09.236Z,16.65
2022-10-19T02:57:37.251Z,16.73
2022-10-19T03:00:07.317Z,16.76
2022-10-19T03:02:34.365Z,16.80
2022-10-19T03:05:01.577Z,16.78
2022-10-19T03:07:28.989Z,16.66
2022-10-19T03:09:56.367Z,16.88
2022-10-19T03:12:23.641Z,16.87
2022-10-19T03:14:51.862Z,16.91
2022-10-19T03:17:19.685Z,16.94
2022-10-19T03:19:47.332Z,16.88
2022-10-19T03:22:14.933Z,16.92
2022-10-19T03:24:42.107Z,16.78
2022-10-19T03:27:09.663Z,16.87
2022-10-19T03:33:23.557Z,16.95
2022-10-19T03:35:51.089Z,16.85
2022-10-19T03:38:18.100Z,16.68
2022-10-19T03:40:45.302Z,16.71
2022-10-19T03:43:13.106Z,16.70
2022-10-19T03:45:40.264Z,16.84
2022-10-19T03:48:07.987Z,17.02
2022-10-19T03:50:35.034Z,16.95
2022-10-19T03:55:30.602Z,16.66
2022-10-19T03:57:57.939Z,16.69
2022-10-19T04:00:25.181Z,16.84
2022-10-19T04:02:52.444Z,16.75
2022-10-19T04:05:19.439Z,16.95
2022-10-19T04:07:46.419Z,16.78
2022-10-19T04:10:13.444Z,16.68
2022-10-19T04:12:40.462Z,16.62
2022-10-19T04:15:08.265Z,16.84
2022-10-19T04:17:35.537Z,16.57
2022-10-19T04:20:02.919Z,16.72
2022-10-19T04:22:29.900Z,16.42
2022-10-19T04:24:56.918Z,16.39
2022-10-19T04:27:30.788Z,16.41
2022-10-19T04:29:58.112Z,16.57
2022-10-19T04:32:25.151Z,16.60
2022-10-19T04:34:52.158Z,16.59
2022-10-19T04:37:19.127Z,16.66
2022-10-19T04:39:46.146Z,16.55
2022-10-19T04:42:13.149Z,16.46
2022-10-19T04:44:40.322Z,16.63
2022-10-19T04:47:07.771Z,16.44
2022-10-19T04:49:34.797Z,16.62
2022-10-19T04:52:04.951Z,16.67
2022-10-19T04:54:31.972Z,16.58
2022-10-19T04:56:58.957Z,16.58
2022-10-19T04:59:26.006Z,16.48
2022-10-19T05:01:52.980Z,16.18
2022-10-19T05:04:19.973Z,16.06
2022-10-19T05:06:50.133Z,16.34
2022-10-19T05:09:17.207Z,16.50
2022-10-19T05:11:44.251Z,16.54
2022-10-19T05:14:39.041Z,16.39
2022-10-19T05:17:09.201Z,16.49
2022-10-19T05:19:36.621Z,16.56
2022-10-19T05:22:03.804Z,16.24
2022-10-19T05:24:37.749Z,16.49
2022-10-19T05:27:04.869Z,16.52
2022-10-19T05:29:33.884Z,16.62
2022-10-19T05:32:00.930Z,16.64
2022-10-19T05:34:27.957Z,16.62
2022-10-19T05:38:10.235Z,16.85
2022-10-19T05:40:37.821Z,16.92
2022-10-19T05:43:05.113Z,17.00
2022-10-19T05:45:32.114Z,16.97
2022-10-19T05:47:59.114Z,16.87
2022-10-19T05:50:26.132Z,17.03
2022-10-19T05:52:53.205Z,17.12
2022-10-19T05:55:20.523Z,17.13
2022-10-19T05:57:47.783Z,17.01
2022-10-19T06:00:15.104Z,16.81
2022-10-19T06:02:42.216Z,16.98
2022-10-19T06:05:09.513Z,16.67
2022-10-19T06:07:36.887Z,16.70
2022-10-19T06:10:04.605Z,16.62
2022-10-19T06:12:31.639Z,16.88
2022-10-19T06:14:58.672Z,16.91
2022-10-19T06:17:29.036Z,17.03
2022-10-19T06:19:56.094Z,17.07
2022-10-19T06:22:23.187Z,16.99
2022-10-19T06:24:50.966Z,17.08
2022-10-19T06:27:18.087Z,16.62
2022-10-19T06:29:45.154Z,16.74
2022-10-19T06:32:12.209Z,16.85
2022-10-19T06:34:39.366Z,16.91
2022-10-19T06:37:06.398Z,16.98
2022-10-19T06:39:33.506Z,17.29
2022-10-19T06:42:00.579Z,16.75
2022-10-19T06:44:27.567Z,16.69
2022-10-19T06:46:54.650Z,16.81
2022-10-19T06:49:21.675Z,17.01
2022-10-19T06:51:48.709Z,16.86
2022-10-19T06:55:30.938Z,17.16
2022-10-19T07:01:44.239Z,16.96
2022-10-19T07:11:45.554Z,16.74
2022-10-19T07:14:39.790Z,17.04
2022-10-19T07:17:08.152Z,17.29
2022-10-19T07:19:35.201Z,17.47
2022-10-19T07:22:02.324Z,17.42
2022-10-19T07:24:29.720Z,17.56
2022-10-19T07:26:58.459Z,17.25
2022-10-19T07:29:34.531Z,17.32
2022-10-19T07:32:01.819Z,17.00
2022-10-19T07:34:29.245Z,16.68
2022-10-19T07:36:56.459Z,16.52
2022-10-19T07:39:23.601Z,16.94
2022-10-19T07:41:50.724Z,17.04
2022-10-19T07:44:18.035Z,17.27
2022-10-19T07:46:45.353Z,17.44
2022-10-19T07:49:16.465Z,16.90
2022-10-19T07:51:54.070Z,17.13
2022-10-19T07:54:21.537Z,17.64
2022-10-19T07:56:48.609Z,17.55
2022-10-19T07:59:17.310Z,17.75
2022-10-19T08:01:45.119Z,18.07
2022-10-19T08:06:59.252Z,18.26
2022-10-19T08:09:53.314Z,18.31
2022-10-19T08:12:15.457Z,18.44
2022-10-19T08:14:43.023Z,18.70
2022-10-19T08:17:16.950Z,18.66
2022-10-19T08:19:53.377Z,18.61
2022-10-19T08:22:20.402Z,18.33
2022-10-19T08:24:49.944Z,18.37
2022-10-19T08:27:42.475Z,18.38
2022-10-19T08:30:10.078Z,18.50
2022-10-19T08:32:37.225Z,18.17
2022-10-19T08:35:08.493Z,18.29
2022-10-19T08:37:45.240Z,18.72
2022-10-19T08:40:24.813Z,18.78
2022-10-19T08:43:24.748Z,18.82
2022-10-19T08:46:23.658Z,19.09
2022-10-19T08:48:52.202Z,19.19
2022-10-19T08:51:19.448Z,19.34
2022-10-19T08:53:53.903Z,19.10
2022-10-19T08:56:51.930Z,19.19
2022-10-19T08:59:40.787Z,19.67
2022-10-19T09:02:19.376Z,19.34
2022-10-19T09:04:53.072Z,19.41
2022-10-19T09:07:24.410Z,19.40
2022-10-19T09:10:03.568Z,19.42
2022-10-19T09:12:44.079Z,19.48
